CheckWX is a tool to help pilots better visualize weather data.  It is not intended as a substitute for an official pre-flight weather briefing.

08:03:26 UTC

OSDI TAF
Damascus International Airport
Damascus, Syria
OSDI 190600Z 1906/2012 22010KT 8000 FEW030 BECMG 2000/2002 VRB03KT 3000 BR TEMPO 2002/2006 0200 FG BECMG 2008/2010 20010KT 8000 FEW030

Mar-19@
06:00 UTC

Mar-19 @ 06:00 UTC

Mar-20@
00:00 UTC

Mar-20 @ 00:00 UTC

OSDI 190600Z 1906/2012 22010KT 8000 FEW030
Wind
  • 220° at 10 KTS
Cloud Levels
  • Few at 3,000' AGL

Mar-20@
00:00 UTC

Mar-20 @ 00:00 UTC

Mar-20@
08:00 UTC

Mar-20 @ 08:00 UTC

BECMG 2000/2002 VRB03KT 3000 BR

Becoming

Becoming Conditions expected by Wed, Mar 20, 2019 @ 02:00 UTC

Wind
  • Variable at 3 KTS
Conditions
Mist
Cloud Levels
  • Few at 3,000' AGL

Mar-20@
02:00 UTC

Mar-20 @ 02:00 UTC

Mar-20@
06:00 UTC

Mar-20 @ 06:00 UTC

TEMPO 2002/2006 0200 FG

Temporary

Temporary Changes expected for less than half the time period

Conditions
Fog

Mar-20@
08:00 UTC

Mar-20 @ 08:00 UTC

Mar-20@
12:00 UTC

Mar-20 @ 12:00 UTC

BECMG 2008/2010 20010KT 8000 FEW030

Becoming

Becoming Conditions expected by Wed, Mar 20, 2019 @ 10:00 UTC

Wind
  • 200° at 10 KTS
Conditions
Mist
Cloud Levels
  • Few at 3,000' AGL